sensor_id;sensor_type;location;lat;lon;timestamp;temperature;humidity
152;DHT22;68;48.792;9.164;2023-08-20T00:00:53;23.30;82.30
152;DHT22;68;48.792;9.164;2023-08-20T00:03:20;23.30;81.90
152;DHT22;68;48.792;9.164;2023-08-20T00:05:48;23.30;82.10
152;DHT22;68;48.792;9.164;2023-08-20T00:08:15;23.30;81.70
152;DHT22;68;48.792;9.164;2023-08-20T00:10:42;23.30;82.30
152;DHT22;68;48.792;9.164;2023-08-20T00:13:10;23.40;82.00
152;DHT22;68;48.792;9.164;2023-08-20T00:15:37;23.40;81.80
152;DHT22;68;48.792;9.164;2023-08-20T00:18:04;23.40;81.80
152;DHT22;68;48.792;9.164;2023-08-20T00:20:32;23.50;82.30
152;DHT22;68;48.792;9.164;2023-08-20T00:23:00;23.50;82.80
152;DHT22;68;48.792;9.164;2023-08-20T00:25:27;23.50;82.50
152;DHT22;68;48.792;9.164;2023-08-20T00:27:54;23.50;82.60
152;DHT22;68;48.792;9.164;2023-08-20T00:30:22;23.60;83.10
152;DHT22;68;48.792;9.164;2023-08-20T00:32:50;23.90;84.10
152;DHT22;68;48.792;9.164;2023-08-20T00:35:16;23.90;86.40
152;DHT22;68;48.792;9.164;2023-08-20T00:37:43;23.80;85.40
152;DHT22;68;48.792;9.164;2023-08-20T00:40:11;23.70;84.80
152;DHT22;68;48.792;9.164;2023-08-20T00:42:38;23.60;83.80
152;DHT22;68;48.792;9.164;2023-08-20T00:45:05;23.60;83.50
152;DHT22;68;48.792;9.164;2023-08-20T00:47:34;23.60;83.60
152;DHT22;68;48.792;9.164;2023-08-20T00:50:01;23.50;82.60
152;DHT22;68;48.792;9.164;2023-08-20T00:52:31;23.50;82.20
152;DHT22;68;48.792;9.164;2023-08-20T00:54:58;23.40;81.30
152;DHT22;68;48.792;9.164;2023-08-20T00:57:25;23.40;80.90
152;DHT22;68;48.792;9.164;2023-08-20T00:59:55;23.40;80.80
152;DHT22;68;48.792;9.164;2023-08-20T01:02:22;23.30;81.00
152;DHT22;68;48.792;9.164;2023-08-20T01:04:50;23.30;80.50
152;DHT22;68;48.792;9.164;2023-08-20T01:07:24;23.30;80.70
152;DHT22;68;48.792;9.164;2023-08-20T01:09:59;23.30;80.10
152;DHT22;68;48.792;9.164;2023-08-20T01:12:29;23.30;79.40
152;DHT22;68;48.792;9.164;2023-08-20T01:14:56;23.30;78.90
152;DHT22;68;48.792;9.164;2023-08-20T01:17:22;23.20;78.80
152;DHT22;68;48.792;9.164;2023-08-20T01:19:51;23.20;78.50
152;DHT22;68;48.792;9.164;2023-08-20T01:22:41;23.20;78.10
152;DHT22;68;48.792;9.164;2023-08-20T01:25:24;23.20;76.90
152;DHT22;68;48.792;9.164;2023-08-20T01:28:02;23.10;77.10
152;DHT22;68;48.792;9.164;2023-08-20T01:30:31;23.10;77.00
152;DHT22;68;48.792;9.164;2023-08-20T01:32:59;23.10;76.60
152;DHT22;68;48.792;9.164;2023-08-20T01:35:26;23.10;75.60
152;DHT22;68;48.792;9.164;2023-08-20T01:37:53;23.10;77.30
152;DHT22;68;48.792;9.164;2023-08-20T01:40:20;23.20;78.10
152;DHT22;68;48.792;9.164;2023-08-20T01:42:46;23.00;76.50
152;DHT22;68;48.792;9.164;2023-08-20T01:45:13;23.10;76.10
152;DHT22;68;48.792;9.164;2023-08-20T01:47:41;23.20;76.20
152;DHT22;68;48.792;9.164;2023-08-20T01:50:09;23.00;75.90
152;DHT22;68;48.792;9.164;2023-08-20T01:52:36;23.00;75.90
152;DHT22;68;48.792;9.164;2023-08-20T01:55:04;22.90;74.70
152;DHT22;68;48.792;9.164;2023-08-20T01:57:31;22.90;74.50
152;DHT22;68;48.792;9.164;2023-08-20T01:59:58;22.90;74.60
152;DHT22;68;48.792;9.164;2023-08-20T02:02:24;22.90;74.10
152;DHT22;68;48.792;9.164;2023-08-20T02:04:53;22.90;74.40
152;DHT22;68;48.792;9.164;2023-08-20T02:07:19;22.90;74.00
152;DHT22;68;48.792;9.164;2023-08-20T02:09:46;22.80;73.20
152;DHT22;68;48.792;9.164;2023-08-20T02:12:14;22.80;72.60
152;DHT22;68;48.792;9.164;2023-08-20T02:14:41;22.70;71.40
152;DHT22;68;48.792;9.164;2023-08-20T02:17:07;22.70;71.60
152;DHT22;68;48.792;9.164;2023-08-20T02:19:34;22.70;72.40
152;DHT22;68;48.792;9.164;2023-08-20T02:22:03;22.70;71.10
152;DHT22;68;48.792;9.164;2023-08-20T02:24:29;22.70;71.60
152;DHT22;68;48.792;9.164;2023-08-20T02:26:56;22.70;71.20
152;DHT22;68;48.792;9.164;2023-08-20T02:29:23;22.80;71.00
152;DHT22;68;48.792;9.164;2023-08-20T02:31:50;22.80;70.90
152;DHT22;68;48.792;9.164;2023-08-20T02:34:16;22.70;72.30
152;DHT22;68;48.792;9.164;2023-08-20T02:36:43;22.60;71.50
152;DHT22;68;48.792;9.164;2023-08-20T02:39:12;22.60;70.90
152;DHT22;68;48.792;9.164;2023-08-20T02:41:39;22.50;70.50
152;DHT22;68;48.792;9.164;2023-08-20T02:44:07;22.40;67.70
152;DHT22;68;48.792;9.164;2023-08-20T02:46:33;22.40;67.20
152;DHT22;68;48.792;9.164;2023-08-20T02:49:00;22.30;65.00
152;DHT22;68;48.792;9.164;2023-08-20T02:51:27;22.40;65.60
152;DHT22;68;48.792;9.164;2023-08-20T02:53:54;22.40;65.40
152;DHT22;68;48.792;9.164;2023-08-20T02:56:22;22.30;66.70
152;DHT22;68;48.792;9.164;2023-08-20T02:58:49;22.40;66.70
152;DHT22;68;48.792;9.164;2023-08-20T03:01:21;22.40;68.40
152;DHT22;68;48.792;9.164;2023-08-20T03:03:48;22.40;68.50
152;DHT22;68;48.792;9.164;2023-08-20T03:06:15;22.30;66.10
152;DHT22;68;48.792;9.164;2023-08-20T03:08:42;22.20;64.60
152;DHT22;68;48.792;9.164;2023-08-20T03:11:09;22.20;63.70
152;DHT22;68;48.792;9.164;2023-08-20T03:13:37;22.20;63.40
152;DHT22;68;48.792;9.164;2023-08-20T03:16:04;22.10;63.80
152;DHT22;68;48.792;9.164;2023-08-20T03:18:30;22.10;63.20
152;DHT22;68;48.792;9.164;2023-08-20T03:20:57;22.00;63.00
152;DHT22;68;48.792;9.164;2023-08-20T03:23:24;22.00;62.60
152;DHT22;68;48.792;9.164;2023-08-20T03:25:51;22.00;61.10
152;DHT22;68;48.792;9.164;2023-08-20T03:28:18;22.00;61.00
152;DHT22;68;48.792;9.164;2023-08-20T03:30:47;22.00;60.40
152;DHT22;68;48.792;9.164;2023-08-20T03:33:13;21.90;60.40
152;DHT22;68;48.792;9.164;2023-08-20T03:35:40;22.00;60.20
152;DHT22;68;48.792;9.164;2023-08-20T03:38:07;22.00;60.50
152;DHT22;68;48.792;9.164;2023-08-20T03:40:34;22.00;61.10
152;DHT22;68;48.792;9.164;2023-08-20T03:43:00;22.00;61.70
152;DHT22;68;48.792;9.164;2023-08-20T03:45:28;22.00;61.50
152;DHT22;68;48.792;9.164;2023-08-20T03:47:57;21.90;60.50
152;DHT22;68;48.792;9.164;2023-08-20T03:50:24;21.90;60.20
152;DHT22;68;48.792;9.164;2023-08-20T03:52:51;21.90;61.30
152;DHT22;68;48.792;9.164;2023-08-20T03:55:17;21.90;62.30
152;DHT22;68;48.792;9.164;2023-08-20T03:57:44;21.90;59.00
152;DHT22;68;48.792;9.164;2023-08-20T04:00:12;21.80;56.60
152;DHT22;68;48.792;9.164;2023-08-20T04:02:39;21.80;56.70
152;DHT22;68;48.792;9.164;2023-08-20T04:05:07;21.80;57.30
152;DHT22;68;48.792;9.164;2023-08-20T04:07:34;21.80;57.20
152;DHT22;68;48.792;9.164;2023-08-20T04:10:01;21.80;57.60
152;DHT22;68;48.792;9.164;2023-08-20T04:12:28;21.80;57.30
152;DHT22;68;48.792;9.164;2023-08-20T04:14:55;21.80;57.00
152;DHT22;68;48.792;9.164;2023-08-20T04:17:22;21.80;57.00
152;DHT22;68;48.792;9.164;2023-08-20T04:19:49;21.80;57.50
152;DHT22;68;48.792;9.164;2023-08-20T04:22:17;21.80;56.70
152;DHT22;68;48.792;9.164;2023-08-20T04:24:43;21.80;56.60
152;DHT22;68;48.792;9.164;2023-08-20T04:27:10;21.90;56.80
152;DHT22;68;48.792;9.164;2023-08-20T04:29:37;22.00;58.20
152;DHT22;68;48.792;9.164;2023-08-20T04:32:04;22.20;60.70
152;DHT22;68;48.792;9.164;2023-08-20T04:34:32;22.50;67.90
152;DHT22;68;48.792;9.164;2023-08-20T04:36:58;22.70;74.00
152;DHT22;68;48.792;9.164;2023-08-20T04:39:26;22.90;78.60
152;DHT22;68;48.792;9.164;2023-08-20T04:41:53;22.90;80.30
152;DHT22;68;48.792;9.164;2023-08-20T04:44:22;23.10;83.60
152;DHT22;68;48.792;9.164;2023-08-20T04:46:49;23.10;85.50
152;DHT22;68;48.792;9.164;2023-08-20T04:49:16;22.80;84.20
152;DHT22;68;48.792;9.164;2023-08-20T04:51:42;22.70;81.80
152;DHT22;68;48.792;9.164;2023-08-20T04:54:09;22.60;80.40
152;DHT22;68;48.792;9.164;2023-08-20T04:56:37;22.50;78.30
152;DHT22;68;48.792;9.164;2023-08-20T04:59:04;22.70;77.20
152;DHT22;68;48.792;9.164;2023-08-20T05:01:31;22.90;79.30
152;DHT22;68;48.792;9.164;2023-08-20T05:03:57;23.00;81.90
152;DHT22;68;48.792;9.164;2023-08-20T05:06:25;23.00;83.60
152;DHT22;68;48.792;9.164;2023-08-20T05:08:52;22.80;82.50
152;DHT22;68;48.792;9.164;2023-08-20T05:11:19;22.70;81.30
152;DHT22;68;48.792;9.164;2023-08-20T05:13:47;22.60;79.70
152;DHT22;68;48.792;9.164;2023-08-20T05:16:14;22.60;77.30
152;DHT22;68;48.792;9.164;2023-08-20T05:18:41;22.70;77.80
152;DHT22;68;48.792;9.164;2023-08-20T05:21:08;22.60;77.80
152;DHT22;68;48.792;9.164;2023-08-20T05:23:37;22.50;76.90
152;DHT22;68;48.792;9.164;2023-08-20T05:26:04;22.70;77.20
152;DHT22;68;48.792;9.164;2023-08-20T05:28:30;22.50;76.50
152;DHT22;68;48.792;9.164;2023-08-20T05:30:59;22.10;67.90
152;DHT22;68;48.792;9.164;2023-08-20T05:33:26;21.90;62.50
152;DHT22;68;48.792;9.164;2023-08-20T05:35:53;22.00;58.70
152;DHT22;68;48.792;9.164;2023-08-20T05:38:20;22.40;64.40
152;DHT22;68;48.792;9.164;2023-08-20T05:40:46;22.80;73.30
152;DHT22;68;48.792;9.164;2023-08-20T05:43:13;23.00;77.40
152;DHT22;68;48.792;9.164;2023-08-20T05:45:40;23.20;82.20
152;DHT22;68;48.792;9.164;2023-08-20T05:48:08;23.40;85.60
152;DHT22;68;48.792;9.164;2023-08-20T05:50:35;23.60;86.70
152;DHT22;68;48.792;9.164;2023-08-20T05:53:01;23.70;87.80
152;DHT22;68;48.792;9.164;2023-08-20T05:55:28;23.60;88.00
152;DHT22;68;48.792;9.164;2023-08-20T05:57:55;23.70;87.70
152;DHT22;68;48.792;9.164;2023-08-20T06:00:22;23.80;88.00
152;DHT22;68;48.792;9.164;2023-08-20T06:02:49;23.70;88.20
152;DHT22;68;48.792;9.164;2023-08-20T06:05:17;23.80;88.20
152;DHT22;68;48.792;9.164;2023-08-20T06:07:44;23.90;88.10
152;DHT22;68;48.792;9.164;2023-08-20T06:10:11;23.90;87.90
152;DHT22;68;48.792;9.164;2023-08-20T06:12:38;24.00;88.70
152;DHT22;68;48.792;9.164;2023-08-20T06:15:05;23.90;88.50
152;DHT22;68;48.792;9.164;2023-08-20T06:17:32;23.80;87.40
152;DHT22;68;48.792;9.164;2023-08-20T06:19:59;23.70;86.40
152;DHT22;68;48.792;9.164;2023-08-20T06:22:27;23.60;86.10
152;DHT22;68;48.792;9.164;2023-08-20T06:24:54;23.50;85.20
152;DHT22;68;48.792;9.164;2023-08-20T06:27:21;23.60;84.60
152;DHT22;68;48.792;9.164;2023-08-20T06:29:48;23.50;83.70
152;DHT22;68;48.792;9.164;2023-08-20T06:32:14;23.80;84.60
152;DHT22;68;48.792;9.164;2023-08-20T06:34:41;23.80;86.40
152;DHT22;68;48.792;9.164;2023-08-20T06:37:08;23.80;85.20
152;DHT22;68;48.792;9.164;2023-08-20T06:39:36;23.80;85.40
152;DHT22;68;48.792;9.164;2023-08-20T06:42:03;24.00;85.50
152;DHT22;68;48.792;9.164;2023-08-20T06:44:30;24.20;87.50
152;DHT22;68;48.792;9.164;2023-08-20T06:46:57;24.20;87.70
152;DHT22;68;48.792;9.164;2023-08-20T06:49:23;24.30;87.90
152;DHT22;68;48.792;9.164;2023-08-20T06:51:50;24.20;87.40
152;DHT22;68;48.792;9.164;2023-08-20T06:54:17;24.00;86.90
152;DHT22;68;48.792;9.164;2023-08-20T06:56:45;24.00;85.10
152;DHT22;68;48.792;9.164;2023-08-20T06:59:12;24.10;85.20
152;DHT22;68;48.792;9.164;2023-08-20T07:01:39;24.10;86.90
152;DHT22;68;48.792;9.164;2023-08-20T07:04:05;24.10;85.60
152;DHT22;68;48.792;9.164;2023-08-20T07:06:32;24.40;86.30
152;DHT22;68;48.792;9.164;2023-08-20T07:08:59;24.20;88.00
152;DHT22;68;48.792;9.164;2023-08-20T07:11:26;24.30;87.30
152;DHT22;68;48.792;9.164;2023-08-20T07:13:54;24.40;88.00
152;DHT22;68;48.792;9.164;2023-08-20T07:18:48;24.50;88.30
152;DHT22;68;48.792;9.164;2023-08-20T07:21:15;24.60;89.30
152;DHT22;68;48.792;9.164;2023-08-20T07:23:41;24.70;89.60
152;DHT22;68;48.792;9.164;2023-08-20T07:26:10;24.80;89.90
152;DHT22;68;48.792;9.164;2023-08-20T07:28:38;24.60;89.10
152;DHT22;68;48.792;9.164;2023-08-20T07:31:20;24.60;88.90
152;DHT22;68;48.792;9.164;2023-08-20T07:33:47;24.60;88.80
152;DHT22;68;48.792;9.164;2023-08-20T07:36:14;24.60;89.00
152;DHT22;68;48.792;9.164;2023-08-20T07:38:42;24.80;90.20
152;DHT22;68;48.792;9.164;2023-08-20T07:41:09;24.80;89.90
152;DHT22;68;48.792;9.164;2023-08-20T07:43:37;25.00;90.40
152;DHT22;68;48.792;9.164;2023-08-20T07:46:04;25.10;90.10
152;DHT22;68;48.792;9.164;2023-08-20T07:48:32;25.20;90.20
152;DHT22;68;48.792;9.164;2023-08-20T07:51:00;25.20;91.20
152;DHT22;68;48.792;9.164;2023-08-20T07:53:26;25.30;91.40
152;DHT22;68;48.792;9.164;2023-08-20T07:55:53;25.20;91.10
152;DHT22;68;48.792;9.164;2023-08-20T07:58:20;25.50;91.60
152;DHT22;68;48.792;9.164;2023-08-20T08:00:47;25.40;91.50
152;DHT22;68;48.792;9.164;2023-08-20T08:05:46;25.30;91.20
152;DHT22;68;48.792;9.164;2023-08-20T09:51:19;28.20;82.90
152;DHT22;68;48.792;9.164;2023-08-20T09:53:53;28.40;83.50
152;DHT22;68;48.792;9.164;2023-08-20T09:56:27;28.50;81.60
152;DHT22;68;48.792;9.164;2023-08-20T09:58:54;28.60;81.70
152;DHT22;68;48.792;9.164;2023-08-20T10:01:22;29.00;79.90
152;DHT22;68;48.792;9.164;2023-08-20T10:03:49;28.80;79.00
152;DHT22;68;48.792;9.164;2023-08-20T10:06:18;28.50;79.60
152;DHT22;68;48.792;9.164;2023-08-20T10:08:46;28.50;78.60
152;DHT22;68;48.792;9.164;2023-08-20T10:11:15;28.50;78.60
152;DHT22;68;48.792;9.164;2023-08-20T10:13:41;28.40;78.00
152;DHT22;68;48.792;9.164;2023-08-20T10:16:11;28.60;79.90
152;DHT22;68;48.792;9.164;2023-08-20T10:18:38;28.80;78.60
152;DHT22;68;48.792;9.164;2023-08-20T10:21:05;28.70;78.30
152;DHT22;68;48.792;9.164;2023-08-20T10:23:35;28.80;77.30
152;DHT22;68;48.792;9.164;2023-08-20T10:26:09;28.80;75.90
152;DHT22;68;48.792;9.164;2023-08-20T10:28:36;29.00;75.80
152;DHT22;68;48.792;9.164;2023-08-20T10:31:04;29.00;75.60
152;DHT22;68;48.792;9.164;2023-08-20T10:33:34;29.00;74.90
152;DHT22;68;48.792;9.164;2023-08-20T10:36:07;28.80;76.70
152;DHT22;68;48.792;9.164;2023-08-20T10:38:37;28.90;74.60
152;DHT22;68;48.792;9.164;2023-08-20T10:41:07;29.10;74.30
152;DHT22;68;48.792;9.164;2023-08-20T10:43:35;29.20;74.10
152;DHT22;68;48.792;9.164;2023-08-20T10:46:07;29.40;74.20
152;DHT22;68;48.792;9.164;2023-08-20T10:48:36;29.60;73.20
152;DHT22;68;48.792;9.164;2023-08-20T10:51:08;29.40;72.00
152;DHT22;68;48.792;9.164;2023-08-20T10:53:36;29.40;74.00
152;DHT22;68;48.792;9.164;2023-08-20T10:56:11;29.80;74.40
152;DHT22;68;48.792;9.164;2023-08-20T10:58:40;30.00;71.40
152;DHT22;68;48.792;9.164;2023-08-20T11:01:19;29.90;73.60
152;DHT22;68;48.792;9.164;2023-08-20T11:03:48;29.90;73.20
152;DHT22;68;48.792;9.164;2023-08-20T11:06:15;29.90;73.50
152;DHT22;68;48.792;9.164;2023-08-20T11:08:44;29.70;73.20
152;DHT22;68;48.792;9.164;2023-08-20T11:11:11;29.70;74.20
152;DHT22;68;48.792;9.164;2023-08-20T11:13:39;29.90;73.60
152;DHT22;68;48.792;9.164;2023-08-20T11:16:06;29.80;73.50
152;DHT22;68;48.792;9.164;2023-08-20T11:18:34;29.90;73.60
152;DHT22;68;48.792;9.164;2023-08-20T11:21:01;30.00;73.20
152;DHT22;68;48.792;9.164;2023-08-20T11:23:29;30.10;73.10
152;DHT22;68;48.792;9.164;2023-08-20T11:25:58;30.30;73.50
152;DHT22;68;48.792;9.164;2023-08-20T11:28:26;30.50;72.40
152;DHT22;68;48.792;9.164;2023-08-20T11:30:53;30.70;72.10
152;DHT22;68;48.792;9.164;2023-08-20T11:33:21;30.60;72.30
152;DHT22;68;48.792;9.164;2023-08-20T11:35:48;30.40;72.50
152;DHT22;68;48.792;9.164;2023-08-20T11:38:15;30.60;71.10
152;DHT22;68;48.792;9.164;2023-08-20T11:40:42;30.70;71.50
152;DHT22;68;48.792;9.164;2023-08-20T11:43:10;30.60;72.10
152;DHT22;68;48.792;9.164;2023-08-20T11:45:45;30.40;71.70
152;DHT22;68;48.792;9.164;2023-08-20T11:48:12;30.40;71.60
152;DHT22;68;48.792;9.164;2023-08-20T11:50:39;30.80;72.60
152;DHT22;68;48.792;9.164;2023-08-20T11:53:07;30.80;71.20
152;DHT22;68;48.792;9.164;2023-08-20T11:55:34;30.90;71.80
152;DHT22;68;48.792;9.164;2023-08-20T11:58:01;30.80;70.90
152;DHT22;68;48.792;9.164;2023-08-20T12:00:31;30.70;69.40
152;DHT22;68;48.792;9.164;2023-08-20T12:02:58;30.90;71.60
152;DHT22;68;48.792;9.164;2023-08-20T12:05:26;31.00;70.40
152;DHT22;68;48.792;9.164;2023-08-20T12:07:58;31.00;69.50
152;DHT22;68;48.792;9.164;2023-08-20T12:10:26;31.00;70.10
152;DHT22;68;48.792;9.164;2023-08-20T12:12:54;30.90;69.20
152;DHT22;68;48.792;9.164;2023-08-20T12:15:21;31.00;71.40
152;DHT22;68;48.792;9.164;2023-08-20T12:18:00;31.00;69.70
152;DHT22;68;48.792;9.164;2023-08-20T12:20:30;31.00;68.50
152;DHT22;68;48.792;9.164;2023-08-20T12:23:03;31.00;69.80
152;DHT22;68;48.792;9.164;2023-08-20T12:25:31;31.30;68.40
152;DHT22;68;48.792;9.164;2023-08-20T12:27:59;31.30;69.20
152;DHT22;68;48.792;9.164;2023-08-20T12:32:53;31.40;68.30
152;DHT22;68;48.792;9.164;2023-08-20T12:35:21;31.30;68.20
152;DHT22;68;48.792;9.164;2023-08-20T12:40:15;31.20;67.70
152;DHT22;68;48.792;9.164;2023-08-20T12:42:43;31.20;68.10
152;DHT22;68;48.792;9.164;2023-08-20T12:45:10;31.30;66.90
152;DHT22;68;48.792;9.164;2023-08-20T12:47:39;31.20;65.90
152;DHT22;68;48.792;9.164;2023-08-20T12:50:06;31.30;67.40
152;DHT22;68;48.792;9.164;2023-08-20T12:52:34;31.20;66.40
152;DHT22;68;48.792;9.164;2023-08-20T12:55:01;31.10;68.30
152;DHT22;68;48.792;9.164;2023-08-20T12:57:28;31.30;68.00
152;DHT22;68;48.792;9.164;2023-08-20T12:59:55;31.10;65.80
152;DHT22;68;48.792;9.164;2023-08-20T13:04:50;31.40;66.80
152;DHT22;68;48.792;9.164;2023-08-20T13:07:17;31.30;66.00
152;DHT22;68;48.792;9.164;2023-08-20T13:09:46;31.30;67.30
152;DHT22;68;48.792;9.164;2023-08-20T13:12:13;31.30;65.70
152;DHT22;68;48.792;9.164;2023-08-20T13:14:41;31.50;65.60
152;DHT22;68;48.792;9.164;2023-08-20T13:17:09;31.40;66.20
152;DHT22;68;48.792;9.164;2023-08-20T13:19:36;31.30;67.30
152;DHT22;68;48.792;9.164;2023-08-20T13:22:03;31.40;66.80
152;DHT22;68;48.792;9.164;2023-08-20T13:24:30;31.20;66.30
152;DHT22;68;48.792;9.164;2023-08-20T13:26:58;31.40;67.60
152;DHT22;68;48.792;9.164;2023-08-20T13:29:25;31.30;66.90
152;DHT22;68;48.792;9.164;2023-08-20T13:31:51;31.40;66.60
152;DHT22;68;48.792;9.164;2023-08-20T13:34:18;31.50;66.80
152;DHT22;68;48.792;9.164;2023-08-20T13:36:45;31.60;66.40
152;DHT22;68;48.792;9.164;2023-08-20T13:39:12;31.70;65.70
152;DHT22;68;48.792;9.164;2023-08-20T13:41:40;31.40;66.20
152;DHT22;68;48.792;9.164;2023-08-20T13:44:08;31.30;66.80
152;DHT22;68;48.792;9.164;2023-08-20T13:46:35;31.30;66.00
152;DHT22;68;48.792;9.164;2023-08-20T13:49:02;31.30;67.40
152;DHT22;68;48.792;9.164;2023-08-20T13:51:29;31.40;66.10
152;DHT22;68;48.792;9.164;2023-08-20T13:53:56;31.50;66.50
152;DHT22;68;48.792;9.164;2023-08-20T13:56:23;31.70;66.40
152;DHT22;68;48.792;9.164;2023-08-20T13:58:51;31.80;66.90
152;DHT22;68;48.792;9.164;2023-08-20T14:01:19;31.80;67.10
152;DHT22;68;48.792;9.164;2023-08-20T14:03:47;32.00;66.30
152;DHT22;68;48.792;9.164;2023-08-20T14:06:14;31.90;66.00
152;DHT22;68;48.792;9.164;2023-08-20T14:08:42;31.80;66.40
152;DHT22;68;48.792;9.164;2023-08-20T14:11:09;31.80;67.00
152;DHT22;68;48.792;9.164;2023-08-20T14:16:03;31.90;66.80
152;DHT22;68;48.792;9.164;2023-08-20T14:18:31;32.20;67.90
152;DHT22;68;48.792;9.164;2023-08-20T14:20:58;32.20;68.40
152;DHT22;68;48.792;9.164;2023-08-20T14:23:25;32.20;65.90
152;DHT22;68;48.792;9.164;2023-08-20T14:25:51;31.80;66.50
152;DHT22;68;48.792;9.164;2023-08-20T14:28:20;31.90;66.80
152;DHT22;68;48.792;9.164;2023-08-20T14:30:47;32.00;67.80
152;DHT22;68;48.792;9.164;2023-08-20T14:33:14;31.70;67.30
152;DHT22;68;48.792;9.164;2023-08-20T14:35:43;31.60;67.00
152;DHT22;68;48.792;9.164;2023-08-20T14:38:10;31.50;66.50
152;DHT22;68;48.792;9.164;2023-08-20T14:40:37;31.60;68.20
152;DHT22;68;48.792;9.164;2023-08-20T14:43:05;31.60;68.70
152;DHT22;68;48.792;9.164;2023-08-20T14:45:32;31.40;67.40
152;DHT22;68;48.792;9.164;2023-08-20T14:47:59;31.60;66.70
152;DHT22;68;48.792;9.164;2023-08-20T14:50:25;31.80;68.00
152;DHT22;68;48.792;9.164;2023-08-20T14:52:54;31.80;65.10
152;DHT22;68;48.792;9.164;2023-08-20T14:55:21;31.70;66.10
152;DHT22;68;48.792;9.164;2023-08-20T14:57:48;31.50;64.80
152;DHT22;68;48.792;9.164;2023-08-20T15:00:15;31.40;66.50
152;DHT22;68;48.792;9.164;2023-08-20T15:02:43;31.30;65.80
152;DHT22;68;48.792;9.164;2023-08-20T15:05:10;31.40;67.10
152;DHT22;68;48.792;9.164;2023-08-20T15:07:37;31.50;65.40
152;DHT22;68;48.792;9.164;2023-08-20T15:10:07;31.70;66.50
152;DHT22;68;48.792;9.164;2023-08-20T15:12:35;31.60;66.20
152;DHT22;68;48.792;9.164;2023-08-20T15:15:02;31.60;67.00
152;DHT22;68;48.792;9.164;2023-08-20T15:17:29;31.80;66.90
152;DHT22;68;48.792;9.164;2023-08-20T15:22:24;31.50;65.70
152;DHT22;68;48.792;9.164;2023-08-20T15:24:51;31.50;65.70
152;DHT22;68;48.792;9.164;2023-08-20T15:27:19;31.60;65.70
152;DHT22;68;48.792;9.164;2023-08-20T15:29:47;31.60;66.90
152;DHT22;68;48.792;9.164;2023-08-20T15:32:14;31.50;66.10
152;DHT22;68;48.792;9.164;2023-08-20T15:34:40;31.70;66.80
152;DHT22;68;48.792;9.164;2023-08-20T15:37:07;31.80;66.80
152;DHT22;68;48.792;9.164;2023-08-20T15:39:34;31.60;64.20
152;DHT22;68;48.792;9.164;2023-08-20T15:42:01;31.60;66.50
152;DHT22;68;48.792;9.164;2023-08-20T15:44:29;31.50;64.60
152;DHT22;68;48.792;9.164;2023-08-20T15:46:56;31.40;66.20
152;DHT22;68;48.792;9.164;2023-08-20T15:49:23;31.50;65.30
152;DHT22;68;48.792;9.164;2023-08-20T15:51:50;31.50;65.80
152;DHT22;68;48.792;9.164;2023-08-20T15:54:16;31.50;65.50
152;DHT22;68;48.792;9.164;2023-08-20T15:56:44;31.30;67.00
152;DHT22;68;48.792;9.164;2023-08-20T15:59:11;31.40;66.30
152;DHT22;68;48.792;9.164;2023-08-20T16:01:39;31.30;66.80
152;DHT22;68;48.792;9.164;2023-08-20T16:04:06;31.10;65.90
152;DHT22;68;48.792;9.164;2023-08-20T16:06:34;31.20;66.20
152;DHT22;68;48.792;9.164;2023-08-20T16:09:01;31.10;65.40
152;DHT22;68;48.792;9.164;2023-08-20T16:11:28;31.10;65.60
152;DHT22;68;48.792;9.164;2023-08-20T16:13:55;31.10;65.90
152;DHT22;68;48.792;9.164;2023-08-20T16:16:22;31.20;66.10
152;DHT22;68;48.792;9.164;2023-08-20T16:18:51;31.30;65.90
152;DHT22;68;48.792;9.164;2023-08-20T16:21:18;31.20;65.90
152;DHT22;68;48.792;9.164;2023-08-20T16:23:45;31.20;66.30
152;DHT22;68;48.792;9.164;2023-08-20T16:26:11;31.30;66.30
152;DHT22;68;48.792;9.164;2023-08-20T16:28:40;31.50;66.20
152;DHT22;68;48.792;9.164;2023-08-20T16:31:07;31.30;64.70
152;DHT22;68;48.792;9.164;2023-08-20T16:33:35;31.20;65.50
152;DHT22;68;48.792;9.164;2023-08-20T16:36:03;31.30;66.00
152;DHT22;68;48.792;9.164;2023-08-20T16:38:30;31.50;66.30
152;DHT22;68;48.792;9.164;2023-08-20T16:40:59;31.30;66.30
152;DHT22;68;48.792;9.164;2023-08-20T16:43:27;31.30;66.40
152;DHT22;68;48.792;9.164;2023-08-20T16:45:55;31.20;65.90
152;DHT22;68;48.792;9.164;2023-08-20T16:48:22;31.10;67.20
152;DHT22;68;48.792;9.164;2023-08-20T16:50:49;30.90;66.20
152;DHT22;68;48.792;9.164;2023-08-20T16:53:18;31.00;67.30
152;DHT22;68;48.792;9.164;2023-08-20T16:55:50;31.20;66.10
152;DHT22;68;48.792;9.164;2023-08-20T16:58:16;31.30;66.60
152;DHT22;68;48.792;9.164;2023-08-20T17:00:43;31.20;66.80
152;DHT22;68;48.792;9.164;2023-08-20T17:03:10;31.20;66.60
152;DHT22;68;48.792;9.164;2023-08-20T17:05:37;31.20;66.90
152;DHT22;68;48.792;9.164;2023-08-20T17:08:04;31.30;66.90
152;DHT22;68;48.792;9.164;2023-08-20T17:10:33;31.50;67.50
152;DHT22;68;48.792;9.164;2023-08-20T17:13:00;31.80;67.30
152;DHT22;68;48.792;9.164;2023-08-20T17:15:27;31.90;66.60
152;DHT22;68;48.792;9.164;2023-08-20T17:17:54;31.90;65.50
152;DHT22;68;48.792;9.164;2023-08-20T17:20:21;31.90;65.80
152;DHT22;68;48.792;9.164;2023-08-20T17:22:47;31.50;65.30
152;DHT22;68;48.792;9.164;2023-08-20T17:25:14;31.30;65.70
152;DHT22;68;48.792;9.164;2023-08-20T17:27:42;31.30;66.60
152;DHT22;68;48.792;9.164;2023-08-20T17:30:09;31.30;67.80
152;DHT22;68;48.792;9.164;2023-08-20T17:32:37;31.30;68.40
152;DHT22;68;48.792;9.164;2023-08-20T17:35:04;31.40;67.40
152;DHT22;68;48.792;9.164;2023-08-20T17:37:33;31.30;67.90
152;DHT22;68;48.792;9.164;2023-08-20T17:40:00;31.40;67.50
152;DHT22;68;48.792;9.164;2023-08-20T17:42:27;31.20;68.00
152;DHT22;68;48.792;9.164;2023-08-20T17:44:55;31.10;68.40
152;DHT22;68;48.792;9.164;2023-08-20T17:47:22;31.10;68.80
152;DHT22;68;48.792;9.164;2023-08-20T17:49:48;30.90;69.10
152;DHT22;68;48.792;9.164;2023-08-20T17:52:15;30.50;70.60
152;DHT22;68;48.792;9.164;2023-08-20T17:54:42;30.60;71.10
152;DHT22;68;48.792;9.164;2023-08-20T17:57:09;30.70;70.40
152;DHT22;68;48.792;9.164;2023-08-20T17:59:35;30.90;70.10
152;DHT22;68;48.792;9.164;2023-08-20T18:02:04;30.50;70.20
152;DHT22;68;48.792;9.164;2023-08-20T18:04:30;30.50;71.90
152;DHT22;68;48.792;9.164;2023-08-20T18:06:57;30.60;71.10
152;DHT22;68;48.792;9.164;2023-08-20T18:09:24;30.50;70.90
152;DHT22;68;48.792;9.164;2023-08-20T18:11:51;30.50;72.00
152;DHT22;68;48.792;9.164;2023-08-20T18:14:18;30.20;72.90
152;DHT22;68;48.792;9.164;2023-08-20T18:16:44;29.80;73.90
152;DHT22;68;48.792;9.164;2023-08-20T18:19:12;29.80;74.60
152;DHT22;68;48.792;9.164;2023-08-20T18:21:39;29.70;75.00
152;DHT22;68;48.792;9.164;2023-08-20T18:24:06;29.70;75.40
152;DHT22;68;48.792;9.164;2023-08-20T18:26:33;29.50;75.80
152;DHT22;68;48.792;9.164;2023-08-20T18:29:00;29.20;76.10
152;DHT22;68;48.792;9.164;2023-08-20T18:31:26;29.00;76.80
152;DHT22;68;48.792;9.164;2023-08-20T18:33:53;28.80;77.60
152;DHT22;68;48.792;9.164;2023-08-20T18:36:21;28.60;78.10
152;DHT22;68;48.792;9.164;2023-08-20T18:38:48;28.40;78.60
152;DHT22;68;48.792;9.164;2023-08-20T18:41:15;28.30;78.90
152;DHT22;68;48.792;9.164;2023-08-20T18:43:43;28.30;79.00
152;DHT22;68;48.792;9.164;2023-08-20T18:46:10;28.20;79.10
152;DHT22;68;48.792;9.164;2023-08-20T18:48:37;28.10;79.30
152;DHT22;68;48.792;9.164;2023-08-20T18:51:05;28.10;79.40
152;DHT22;68;48.792;9.164;2023-08-20T18:53:34;28.10;79.50